createdAt,value
2022-11-30T00:01:12.929Z,17.20
2022-11-30T00:03:41.069Z,18.10
2022-11-30T00:06:10.030Z,18.43
2022-11-30T00:08:38.190Z,17.60
2022-11-30T00:11:11.096Z,18.87
2022-11-30T00:13:39.270Z,19.77
2022-11-30T00:16:08.182Z,19.13
2022-11-30T00:18:36.919Z,20.40
2022-11-30T00:21:05.727Z,20.87
2022-11-30T00:23:34.429Z,22.23
2022-11-30T00:26:03.282Z,20.87
2022-11-30T00:28:33.545Z,19.80
2022-11-30T00:31:02.205Z,20.70
2022-11-30T00:33:30.685Z,21.37
2022-11-30T00:35:59.390Z,21.30
2022-11-30T00:38:27.848Z,20.60
2022-11-30T00:40:56.619Z,21.80
2022-11-30T00:43:24.941Z,21.17
2022-11-30T00:45:54.638Z,20.13
2022-11-30T00:48:22.997Z,21.77
2022-11-30T00:50:51.634Z,20.03
2022-11-30T00:53:20.256Z,22.13
2022-11-30T00:55:48.733Z,21.00
2022-11-30T00:58:16.901Z,20.87
2022-11-30T01:00:45.069Z,22.63
2022-11-30T01:03:14.793Z,20.33
2022-11-30T01:05:43.690Z,22.10
2022-11-30T01:08:12.617Z,21.03
2022-11-30T01:10:42.089Z,23.03
2022-11-30T01:13:10.794Z,21.50
2022-11-30T01:15:39.407Z,23.53
2022-11-30T01:18:08.061Z,22.23
2022-11-30T01:20:41.243Z,21.80
2022-11-30T01:23:09.394Z,21.87
2022-11-30T01:25:37.556Z,22.33
2022-11-30T01:28:05.834Z,22.90
2022-11-30T01:30:34.030Z,20.47
2022-11-30T01:33:03.821Z,21.87
2022-11-30T01:35:31.953Z,22.20
2022-11-30T01:38:01.471Z,21.47
2022-11-30T01:40:29.603Z,22.57
2022-11-30T01:42:57.780Z,22.33
2022-11-30T01:45:26.326Z,21.57
2022-11-30T01:47:55.235Z,22.63
2022-11-30T01:50:25.719Z,22.30
2022-11-30T01:52:55.674Z,22.33
2022-11-30T01:55:28.746Z,23.10
2022-11-30T01:57:59.394Z,22.50
2022-11-30T02:00:27.603Z,22.80
2022-11-30T02:02:59.915Z,22.80
2022-11-30T02:05:28.377Z,20.70
2022-11-30T02:07:56.749Z,21.70
2022-11-30T02:10:27.965Z,21.87
2022-11-30T02:13:17.065Z,20.30
2022-11-30T02:15:50.060Z,21.57
2022-11-30T02:18:22.159Z,22.10
2022-11-30T02:20:57.378Z,21.33
2022-11-30T02:23:41.161Z,21.37
2022-11-30T02:26:15.442Z,20.83
2022-11-30T02:29:04.177Z,21.10
2022-11-30T02:31:36.630Z,21.47
2022-11-30T02:34:05.449Z,20.43
2022-11-30T02:36:33.993Z,23.37
2022-11-30T02:39:02.470Z,20.80
2022-11-30T02:41:38.026Z,21.43
2022-11-30T02:44:08.773Z,22.77
2022-11-30T02:46:43.135Z,22.80
2022-11-30T02:49:14.948Z,23.13
2022-11-30T02:51:43.526Z,22.07
2022-11-30T02:54:11.994Z,22.90
2022-11-30T02:56:40.149Z,21.93
2022-11-30T02:59:09.741Z,23.57
2022-11-30T03:01:37.969Z,23.03
2022-11-30T03:04:06.333Z,25.13
2022-11-30T03:06:34.506Z,22.50
2022-11-30T03:09:02.695Z,22.20
2022-11-30T03:11:30.847Z,21.70
2022-11-30T03:13:58.999Z,23.27
2022-11-30T03:16:28.529Z,23.37
2022-11-30T03:18:56.656Z,21.30
2022-11-30T03:21:24.788Z,21.83
2022-11-30T03:23:53.242Z,20.17
2022-11-30T03:26:21.458Z,20.93
2022-11-30T03:28:49.657Z,20.27
2022-11-30T03:31:17.873Z,18.90
2022-11-30T03:33:47.420Z,18.47
2022-11-30T03:36:15.838Z,17.60
2022-11-30T03:38:44.022Z,16.97
2022-11-30T03:41:13.996Z,17.43
2022-11-30T03:43:42.217Z,16.60
2022-11-30T03:46:10.598Z,15.63
2022-11-30T03:48:38.851Z,16.50
2022-11-30T03:51:08.811Z,17.03
2022-11-30T03:53:37.024Z,17.50
2022-11-30T03:56:06.496Z,16.53
2022-11-30T03:58:34.864Z,16.33
2022-11-30T04:01:03.405Z,15.77
2022-11-30T04:03:31.717Z,15.77
2022-11-30T04:06:00.527Z,17.50
2022-11-30T04:08:30.491Z,16.83
2022-11-30T04:10:59.566Z,16.57
2022-11-30T04:13:28.295Z,15.67
2022-11-30T04:15:56.699Z,17.00
2022-11-30T04:18:25.602Z,17.57
2022-11-30T04:20:53.814Z,16.00
2022-11-30T04:23:22.077Z,16.03
2022-11-30T04:25:51.905Z,16.67
2022-11-30T04:28:20.677Z,17.77
2022-11-30T04:30:49.081Z,16.77
2022-11-30T04:33:18.034Z,15.27
2022-11-30T04:35:48.393Z,15.87
2022-11-30T04:38:16.699Z,15.90
2022-11-30T04:40:45.289Z,15.17
2022-11-30T04:43:15.011Z,16.03
2022-11-30T04:45:43.273Z,14.70
2022-11-30T04:48:11.440Z,14.43
2022-11-30T04:50:40.340Z,14.63
2022-11-30T04:53:08.717Z,14.30
2022-11-30T04:55:37.706Z,14.03
2022-11-30T04:58:05.933Z,14.43
2022-11-30T05:00:35.989Z,14.53
2022-11-30T05:03:04.204Z,16.40
2022-11-30T05:05:32.390Z,17.70
2022-11-30T05:08:01.121Z,16.17
2022-11-30T05:10:29.915Z,16.70
2022-11-30T05:12:58.477Z,17.83
2022-11-30T05:15:26.876Z,17.37
2022-11-30T05:17:59.678Z,18.30
2022-11-30T05:20:27.865Z,18.23
2022-11-30T05:22:56.027Z,18.03
2022-11-30T05:25:24.269Z,19.00
2022-11-30T05:27:52.442Z,17.87
2022-11-30T05:30:20.633Z,18.83
2022-11-30T05:32:48.812Z,18.63
2022-11-30T05:35:18.340Z,18.97
2022-11-30T05:37:46.506Z,18.87
2022-11-30T05:40:15.050Z,18.40
2022-11-30T05:42:43.209Z,19.83
2022-11-30T05:45:11.996Z,19.93
2022-11-30T05:47:40.168Z,19.23
2022-11-30T05:50:09.053Z,18.83
2022-11-30T05:52:38.531Z,20.20
2022-11-30T05:55:07.116Z,21.00
2022-11-30T05:57:37.542Z,19.77
2022-11-30T06:00:05.958Z,21.97
2022-11-30T06:02:34.249Z,22.30
2022-11-30T06:05:02.456Z,22.77
2022-11-30T06:07:30.656Z,23.57
2022-11-30T06:10:00.231Z,23.87
2022-11-30T06:12:28.393Z,23.07
2022-11-30T06:14:56.521Z,22.33
2022-11-30T06:17:24.689Z,24.13
2022-11-30T06:19:52.863Z,23.97
2022-11-30T06:22:21.008Z,23.50
2022-11-30T06:24:49.485Z,25.07
2022-11-30T06:27:19.075Z,26.20
2022-11-30T06:29:47.245Z,24.97
2022-11-30T06:32:15.414Z,24.87
2022-11-30T06:34:43.589Z,25.33
2022-11-30T06:37:11.734Z,26.10
2022-11-30T06:42:30.099Z,25.47
2022-11-30T06:44:58.377Z,26.80
2022-11-30T06:47:26.794Z,26.87
2022-11-30T06:49:55.014Z,29.03
2022-11-30T06:52:23.220Z,29.47
2022-11-30T06:54:51.489Z,28.93
2022-11-30T06:57:19.638Z,27.77
2022-11-30T06:59:49.110Z,30.53
2022-11-30T07:02:18.804Z,27.23
2022-11-30T07:04:47.468Z,26.70
2022-11-30T07:07:16.060Z,25.83
2022-11-30T07:09:44.257Z,27.80
2022-11-30T07:12:13.217Z,27.97
2022-11-30T07:14:41.376Z,26.10
2022-11-30T07:17:10.881Z,24.67
2022-11-30T07:19:39.046Z,23.00
2022-11-30T07:22:07.186Z,24.67
2022-11-30T07:24:53.077Z,23.53
2022-11-30T07:27:21.241Z,22.23
2022-11-30T07:29:51.464Z,22.33
2022-11-30T07:32:21.315Z,23.17
2022-11-30T07:34:49.756Z,22.67
2022-11-30T07:37:18.160Z,21.77
2022-11-30T07:39:46.326Z,22.37
2022-11-30T07:42:14.506Z,22.57
2022-11-30T07:44:42.641Z,22.13
2022-11-30T07:47:10.922Z,21.60
2022-11-30T07:49:40.731Z,21.63
2022-11-30T07:52:09.018Z,21.33
2022-11-30T07:54:37.174Z,21.93
2022-11-30T07:57:05.359Z,21.60
2022-11-30T07:59:33.506Z,21.80
2022-11-30T08:02:01.872Z,21.13
2022-11-30T08:04:30.189Z,20.30
2022-11-30T08:07:00.247Z,21.43
2022-11-30T08:09:28.446Z,19.67
2022-11-30T08:11:56.588Z,20.73
2022-11-30T08:14:24.728Z,21.07
2022-11-30T08:16:52.935Z,20.70
2022-11-30T08:19:21.158Z,20.97
2022-11-30T08:21:49.316Z,21.37
2022-11-30T08:24:18.961Z,21.70
2022-11-30T08:26:47.178Z,20.23
2022-11-30T08:29:15.322Z,21.07
2022-11-30T08:31:43.495Z,20.90
2022-11-30T08:34:12.819Z,20.87
2022-11-30T08:36:41.060Z,21.43
2022-11-30T08:39:09.895Z,21.90
2022-11-30T08:41:39.645Z,19.73
2022-11-30T08:44:08.046Z,20.90
2022-11-30T08:46:53.237Z,21.93
2022-11-30T08:49:23.589Z,20.97
2022-11-30T08:52:17.086Z,19.33
2022-11-30T08:54:44.941Z,19.47
2022-11-30T08:57:14.903Z,19.03
2022-11-30T08:59:43.056Z,21.27
2022-11-30T09:02:12.187Z,20.17
2022-11-30T09:04:40.326Z,19.77
2022-11-30T09:07:09.432Z,18.80
2022-11-30T09:09:37.832Z,17.30
2022-11-30T09:12:06.110Z,18.77
2022-11-30T09:14:35.629Z,19.67
2022-11-30T09:17:03.902Z,18.73
2022-11-30T09:19:32.073Z,17.03
2022-11-30T09:22:00.488Z,17.00
2022-11-30T09:24:28.657Z,17.30
2022-11-30T09:26:57.616Z,16.77
2022-11-30T09:29:26.014Z,16.80
2022-11-30T09:31:55.613Z,16.47
2022-11-30T09:34:23.841Z,16.23
2022-11-30T09:36:51.995Z,15.67
2022-11-30T09:39:20.196Z,16.17
2022-11-30T09:42:18.368Z,15.70
2022-11-30T09:44:51.051Z,15.97
2022-11-30T09:47:27.761Z,17.47
2022-11-30T09:50:03.917Z,17.67
2022-11-30T09:52:35.433Z,17.93
2022-11-30T09:55:07.174Z,18.40
2022-11-30T09:57:39.296Z,16.67
2022-11-30T10:00:12.414Z,18.87
2022-11-30T10:02:42.413Z,20.00
2022-11-30T10:05:14.413Z,18.13
2022-11-30T10:07:48.398Z,17.73
2022-11-30T10:10:36.285Z,18.03
2022-11-30T10:13:10.638Z,19.53
2022-11-30T10:15:45.538Z,18.93
2022-11-30T10:18:18.399Z,18.27
2022-11-30T10:20:53.046Z,19.20
2022-11-30T10:23:27.698Z,18.13
2022-11-30T10:25:57.633Z,17.70
2022-11-30T10:28:47.097Z,17.63
2022-11-30T10:31:16.345Z,16.60
2022-11-30T10:33:47.734Z,19.50
2022-11-30T10:36:18.575Z,18.60
2022-11-30T10:38:48.545Z,19.00
2022-11-30T10:41:18.405Z,21.97
2022-11-30T10:43:49.181Z,22.77
2022-11-30T10:46:20.509Z,24.27
2022-11-30T10:48:53.424Z,25.40
2022-11-30T10:51:22.110Z,25.67
2022-11-30T10:53:50.265Z,24.93
2022-11-30T10:56:18.431Z,24.07
2022-11-30T10:58:52.403Z,20.87
2022-11-30T11:01:34.971Z,21.07
2022-11-30T11:04:12.402Z,19.90
2022-11-30T11:06:43.298Z,21.43
2022-11-30T11:09:30.214Z,20.43
2022-11-30T11:11:59.309Z,21.80
2022-11-30T11:14:30.414Z,18.13
2022-11-30T11:17:01.200Z,18.60
2022-11-30T11:19:38.347Z,18.77
2022-11-30T11:22:07.992Z,19.40
2022-11-30T11:24:36.454Z,18.83
2022-11-30T11:27:04.722Z,19.47
2022-11-30T11:29:33.850Z,17.83
2022-11-30T11:32:09.220Z,18.70
2022-11-30T11:34:38.798Z,19.83
2022-11-30T11:37:08.099Z,20.63
2022-11-30T11:39:36.283Z,21.60
2022-11-30T11:42:05.328Z,20.43
2022-11-30T11:44:33.730Z,21.80
2022-11-30T11:47:02.828Z,20.17
2022-11-30T11:49:31.655Z,20.07
2022-11-30T11:52:04.912Z,19.80
2022-11-30T11:54:36.116Z,20.90
2022-11-30T11:57:04.349Z,18.50
2022-11-30T11:59:37.796Z,19.23
2022-11-30T12:02:13.878Z,19.50
2022-11-30T12:04:44.585Z,19.00
2022-11-30T12:07:20.124Z,18.10
2022-11-30T12:09:54.931Z,18.90
2022-11-30T12:12:23.117Z,19.77
2022-11-30T12:14:51.351Z,20.07
2022-11-30T12:17:24.649Z,20.47
2022-11-30T12:19:59.186Z,18.77
2022-11-30T12:22:39.242Z,19.13
2022-11-30T12:25:16.390Z,20.90
2022-11-30T12:27:53.358Z,21.10
2022-11-30T12:30:23.702Z,21.03
2022-11-30T12:33:05.135Z,21.33
2022-11-30T12:35:38.018Z,20.90
2022-11-30T12:38:13.371Z,21.60
2022-11-30T12:40:47.527Z,21.60
2022-11-30T12:43:22.588Z,20.37
2022-11-30T12:45:51.845Z,20.50
2022-11-30T12:48:26.773Z,20.77
2022-11-30T12:51:00.373Z,19.77
2022-11-30T12:53:32.361Z,20.33
2022-11-30T12:56:07.058Z,20.37
2022-11-30T12:58:39.853Z,18.97
2022-11-30T13:01:12.932Z,19.30
2022-11-30T13:03:48.050Z,19.50
2022-11-30T13:06:17.488Z,19.50
2022-11-30T13:08:50.965Z,18.93
2022-11-30T13:11:20.248Z,19.67
2022-11-30T13:13:50.824Z,17.63
2022-11-30T13:16:20.469Z,19.10
2022-11-30T13:18:49.098Z,18.57
2022-11-30T13:21:21.590Z,18.47
2022-11-30T13:23:56.168Z,18.63
2022-11-30T13:26:27.639Z,20.37
2022-11-30T13:29:04.768Z,19.23
2022-11-30T13:31:36.102Z,18.97
2022-11-30T13:34:04.337Z,19.00
2022-11-30T13:36:34.624Z,20.73
2022-11-30T13:39:29.671Z,19.63
2022-11-30T13:42:20.850Z,19.00
2022-11-30T13:44:49.855Z,20.40
2022-11-30T13:47:19.611Z,20.37
2022-11-30T13:49:47.996Z,20.73
2022-11-30T13:52:24.529Z,19.37
2022-11-30T13:54:55.541Z,20.87
2022-11-30T13:57:42.171Z,20.77
2022-11-30T14:00:27.002Z,19.97
2022-11-30T14:02:57.991Z,19.73
2022-11-30T14:05:41.104Z,20.37
2022-11-30T14:08:14.453Z,18.70
2022-11-30T14:10:43.421Z,19.87
2022-11-30T14:13:31.358Z,21.13
2022-11-30T14:16:01.427Z,20.10
2022-11-30T14:18:40.230Z,19.83
2022-11-30T14:21:19.290Z,20.10
2022-11-30T14:23:50.426Z,20.97
2022-11-30T14:26:22.224Z,18.87
2022-11-30T14:28:54.116Z,18.73
2022-11-30T14:31:23.681Z,18.67
2022-11-30T14:33:55.536Z,19.43
2022-11-30T14:36:26.540Z,18.83
2022-11-30T14:38:54.700Z,19.60
2022-11-30T14:41:24.193Z,18.23
2022-11-30T14:44:06.463Z,18.30
2022-11-30T14:46:36.017Z,18.73
2022-11-30T14:49:16.078Z,20.17
2022-11-30T14:51:45.186Z,19.10
2022-11-30T14:54:24.277Z,18.10
2022-11-30T14:56:54.477Z,19.27
2022-11-30T14:59:30.967Z,19.07
2022-11-30T15:01:59.968Z,19.00
2022-11-30T15:04:30.971Z,18.80
2022-11-30T15:07:00.212Z,19.57
2022-11-30T15:09:30.728Z,19.30
2022-11-30T15:11:59.282Z,18.67
2022-11-30T15:14:27.440Z,19.53
2022-11-30T15:16:57.011Z,19.20
2022-11-30T15:19:26.884Z,19.10
2022-11-30T15:21:57.711Z,19.40
2022-11-30T15:24:26.209Z,19.70
2022-11-30T15:26:56.358Z,17.97
2022-11-30T15:29:27.202Z,19.77
2022-11-30T15:31:55.803Z,19.30
2022-11-30T15:34:28.683Z,20.37
2022-11-30T15:36:58.773Z,18.53
2022-11-30T15:39:28.068Z,19.40
2022-11-30T15:41:57.210Z,17.83
2022-11-30T15:44:26.375Z,17.63
2022-11-30T15:46:59.906Z,17.93
2022-11-30T15:49:28.939Z,18.03
2022-11-30T15:52:04.526Z,17.20
2022-11-30T15:54:46.286Z,17.13
2022-11-30T15:57:14.492Z,17.67
2022-11-30T15:59:42.676Z,17.90
2022-11-30T16:02:26.126Z,16.60
2022-11-30T16:05:21.938Z,18.17
2022-11-30T16:07:52.579Z,16.67
2022-11-30T16:10:23.496Z,16.60
2022-11-30T16:12:52.818Z,16.33
2022-11-30T16:15:22.657Z,16.53
2022-11-30T16:17:51.170Z,15.87
2022-11-30T16:20:20.791Z,16.63
2022-11-30T16:22:49.609Z,17.03
2022-11-30T16:25:19.994Z,15.07
2022-11-30T16:27:48.618Z,17.13
2022-11-30T16:30:17.463Z,15.20
2022-11-30T16:32:45.913Z,15.27
2022-11-30T16:35:18.553Z,16.67
2022-11-30T16:37:46.724Z,17.43
2022-11-30T16:40:15.280Z,15.93
2022-11-30T16:42:44.944Z,16.80
2022-11-30T16:45:15.950Z,17.10
2022-11-30T16:47:44.529Z,17.30
2022-11-30T16:50:13.058Z,18.30
2022-11-30T16:52:41.457Z,18.43
2022-11-30T16:55:14.230Z,18.17
2022-11-30T16:57:42.397Z,18.40
2022-11-30T17:00:13.605Z,19.13
2022-11-30T17:02:43.728Z,19.07
2022-11-30T17:05:12.402Z,18.73
2022-11-30T17:07:40.614Z,18.57
2022-11-30T17:10:09.254Z,17.53
2022-11-30T17:12:37.431Z,16.77
2022-11-30T17:15:05.962Z,18.00
2022-11-30T17:17:35.442Z,17.77
2022-11-30T17:20:03.620Z,19.33
2022-11-30T17:22:33.685Z,18.80
2022-11-30T17:25:01.801Z,18.93
2022-11-30T17:27:30.006Z,19.40
2022-11-30T17:29:58.169Z,18.87
2022-11-30T17:32:26.355Z,19.67
2022-11-30T17:34:55.896Z,20.27
2022-11-30T17:37:24.563Z,19.87
2022-11-30T17:39:52.740Z,18.43
2022-11-30T17:42:20.920Z,18.77
2022-11-30T17:44:49.572Z,18.53
2022-11-30T17:47:17.987Z,19.23
2022-11-30T17:49:46.160Z,18.37
2022-11-30T17:52:15.705Z,18.90
2022-11-30T17:54:43.858Z,17.80
2022-11-30T17:57:12.018Z,19.53
2022-11-30T17:59:40.164Z,16.83
2022-11-30T18:02:08.361Z,17.90
2022-11-30T18:04:36.566Z,18.80
2022-11-30T18:07:04.721Z,18.43
2022-11-30T18:09:39.281Z,18.63
2022-11-30T18:12:09.716Z,18.03
2022-11-30T18:14:37.883Z,19.60
2022-11-30T18:17:06.375Z,18.40
2022-11-30T18:19:34.685Z,19.30
2022-11-30T18:22:02.831Z,17.70
2022-11-30T18:24:31.001Z,17.77
2022-11-30T18:27:00.546Z,17.27
2022-11-30T18:29:28.728Z,18.17
2022-11-30T18:31:56.867Z,17.13
2022-11-30T18:34:25.073Z,17.57
2022-11-30T18:36:53.260Z,19.77
2022-11-30T18:39:21.485Z,18.00
2022-11-30T18:41:49.940Z,18.80
2022-11-30T18:44:19.425Z,18.13
2022-11-30T18:46:47.570Z,18.13
2022-11-30T18:49:15.725Z,18.83
2022-11-30T18:51:43.930Z,18.07
2022-11-30T18:54:12.370Z,17.50
2022-11-30T18:56:40.586Z,19.00
2022-11-30T18:59:09.759Z,18.07
2022-11-30T19:01:39.386Z,18.90
2022-11-30T19:04:08.739Z,18.27
2022-11-30T19:06:37.149Z,17.90
2022-11-30T19:09:08.412Z,19.23
2022-11-30T19:11:36.873Z,17.73
2022-11-30T19:14:05.829Z,16.27
2022-11-30T19:16:34.848Z,17.83
2022-11-30T19:19:05.704Z,17.13
2022-11-30T19:21:34.103Z,17.83
2022-11-30T19:24:02.371Z,17.27
2022-11-30T19:26:30.897Z,17.17
2022-11-30T19:28:59.383Z,17.97
2022-11-30T19:31:27.983Z,18.20
2022-11-30T19:33:57.043Z,18.77
2022-11-30T19:36:27.579Z,18.03
2022-11-30T19:38:56.705Z,17.13
2022-11-30T19:41:24.844Z,17.37
2022-11-30T19:44:02.573Z,18.83
2022-11-30T19:46:32.895Z,17.03
2022-11-30T19:49:02.095Z,17.37
2022-11-30T19:51:32.240Z,18.30
2022-11-30T19:54:00.435Z,16.17
2022-11-30T19:56:29.520Z,17.27
2022-11-30T19:59:04.038Z,16.83
2022-11-30T20:01:32.570Z,18.03
2022-11-30T20:04:00.863Z,17.70
2022-11-30T20:06:30.456Z,16.77
2022-11-30T20:09:00.188Z,16.90
2022-11-30T20:11:28.355Z,17.03
2022-11-30T20:13:56.603Z,18.83
2022-11-30T20:16:24.864Z,16.70
2022-11-30T20:18:54.025Z,17.27
2022-11-30T20:21:23.249Z,18.10
2022-11-30T20:23:51.717Z,17.87
2022-11-30T20:26:22.300Z,16.53
2022-11-30T20:28:51.510Z,16.77
2022-11-30T20:31:20.639Z,16.50
2022-11-30T20:33:49.202Z,15.93
2022-11-30T20:36:18.382Z,17.27
2022-11-30T20:38:46.542Z,17.37
2022-11-30T20:41:16.386Z,16.93
2022-11-30T20:43:45.918Z,16.53
2022-11-30T20:46:14.788Z,15.87
2022-11-30T20:48:43.009Z,16.00
2022-11-30T20:51:30.261Z,15.00
2022-11-30T20:53:59.217Z,15.00
2022-11-30T20:56:27.374Z,15.57
2022-11-30T20:58:56.883Z,15.37
2022-11-30T21:01:25.256Z,15.37
2022-11-30T21:03:53.439Z,16.07
2022-11-30T21:06:21.575Z,14.57
2022-11-30T21:08:49.729Z,16.03
2022-11-30T21:11:19.251Z,15.27
2022-11-30T21:13:48.669Z,15.50
2022-11-30T21:16:24.075Z,16.07
2022-11-30T21:18:54.384Z,16.10
2022-11-30T21:21:23.508Z,15.93
2022-11-30T21:23:52.192Z,16.47
2022-11-30T21:26:21.684Z,16.33
2022-11-30T21:28:52.748Z,16.17
2022-11-30T21:31:22.372Z,16.83
2022-11-30T21:33:53.605Z,16.17
2022-11-30T21:36:22.540Z,16.70
2022-11-30T21:38:57.114Z,17.03
2022-11-30T21:41:30.969Z,16.30
2022-11-30T21:43:59.130Z,16.73
2022-11-30T21:46:28.711Z,17.47
2022-11-30T21:48:56.907Z,17.23
2022-11-30T21:51:25.923Z,18.30
2022-11-30T21:53:54.811Z,17.60
2022-11-30T21:56:23.749Z,17.93
2022-11-30T21:58:52.411Z,17.10
2022-11-30T22:01:21.524Z,19.70
2022-11-30T22:03:51.096Z,19.00
2022-11-30T22:06:19.864Z,18.23
2022-11-30T22:08:48.427Z,17.90
2022-11-30T22:11:17.585Z,20.10
2022-11-30T22:13:46.204Z,21.17
2022-11-30T22:16:15.704Z,19.83
2022-11-30T22:18:44.658Z,19.10
2022-11-30T22:21:15.045Z,18.87
2022-11-30T22:23:44.141Z,21.10
2022-11-30T22:26:13.101Z,21.50
2022-11-30T22:28:42.355Z,21.73
2022-11-30T22:31:11.817Z,22.27
2022-11-30T22:33:40.654Z,22.47
2022-11-30T22:36:09.844Z,24.03
2022-11-30T22:38:39.358Z,25.47
2022-11-30T22:41:08.162Z,23.10
2022-11-30T22:43:36.686Z,23.73
2022-11-30T22:46:08.447Z,24.60
2022-11-30T22:48:36.826Z,24.97
2022-11-30T22:51:06.089Z,23.23
2022-11-30T22:53:34.936Z,24.97
2022-11-30T22:56:05.334Z,25.03
2022-11-30T22:58:33.630Z,25.50
2022-11-30T23:01:09.317Z,27.13
2022-11-30T23:03:37.543Z,24.90
2022-11-30T23:06:06.150Z,25.73
2022-11-30T23:08:34.735Z,25.33
2022-11-30T23:11:04.146Z,27.00
2022-11-30T23:13:33.694Z,27.20
2022-11-30T23:16:01.956Z,25.30
2022-11-30T23:18:30.270Z,24.13
2022-11-30T23:20:59.270Z,25.23
2022-11-30T23:23:27.421Z,24.37
2022-11-30T23:25:55.570Z,23.83
2022-11-30T23:28:23.725Z,24.40
2022-11-30T23:30:53.242Z,23.30
2022-11-30T23:33:21.378Z,22.60
2022-11-30T23:35:49.545Z,22.77
2022-11-30T23:38:17.691Z,21.70
2022-11-30T23:40:45.841Z,23.57
2022-11-30T23:43:14.004Z,23.93
2022-11-30T23:45:42.192Z,24.63
2022-11-30T23:48:11.697Z,25.53
2022-11-30T23:50:39.849Z,25.60
2022-11-30T23:53:07.998Z,25.20
2022-11-30T23:55:36.354Z,25.63
2022-11-30T23:58:04.489Z,25.43
